sensor_id;sensor_type;location;lat;lon;timestamp;pressure;altitude;pressure_sealevel;temperature;humidity
64192;BME280;50497;50.720;-2.084;2022-07-29T00:01:25;101738.44;;;14.76;100.00
64192;BME280;50497;50.720;-2.084;2022-07-29T00:03:51;101740.78;;;14.65;100.00
64192;BME280;50497;50.720;-2.084;2022-07-29T00:06:16;101738.88;;;14.67;100.00
64192;BME280;50497;50.720;-2.084;2022-07-29T00:08:46;101743.47;;;14.65;100.00
64192;BME280;50497;50.720;-2.084;2022-07-29T00:11:12;101746.59;;;14.74;100.00
64192;BME280;50497;50.720;-2.084;2022-07-29T00:13:38;101743.97;;;14.73;100.00
64192;BME280;50497;50.720;-2.084;2022-07-29T00:16:04;101745.84;;;14.71;100.00
64192;BME280;50497;50.720;-2.084;2022-07-29T00:18:30;101743.41;;;14.66;100.00
64192;BME280;50497;50.720;-2.084;2022-07-29T00:20:55;101743.88;;;14.55;100.00
64192;BME280;50497;50.720;-2.084;2022-07-29T00:23:21;101735.41;;;14.44;100.00
64192;BME280;50497;50.720;-2.084;2022-07-29T00:25:47;101742.13;;;14.54;100.00
64192;BME280;50497;50.720;-2.084;2022-07-29T00:28:13;101742.22;;;14.53;100.00
64192;BME280;50497;50.720;-2.084;2022-07-29T00:30:39;101736.53;;;14.59;100.00
64192;BME280;50497;50.720;-2.084;2022-07-29T00:33:07;101725.75;;;14.59;100.00
64192;BME280;50497;50.720;-2.084;2022-07-29T00:35:33;101730.41;;;14.55;100.00
64192;BME280;50497;50.720;-2.084;2022-07-29T00:38:12;101738.56;;;14.54;100.00
64192;BME280;50497;50.720;-2.084;2022-07-29T00:40:38;101739.81;;;14.47;100.00
64192;BME280;50497;50.720;-2.084;2022-07-29T00:43:04;101737.19;;;14.45;100.00
64192;BME280;50497;50.720;-2.084;2022-07-29T00:45:30;101729.47;;;14.37;100.00
64192;BME280;50497;50.720;-2.084;2022-07-29T00:47:56;101733.47;;;14.29;100.00
64192;BME280;50497;50.720;-2.084;2022-07-29T00:50:22;101729.97;;;14.27;100.00
64192;BME280;50497;50.720;-2.084;2022-07-29T00:52:48;101730.72;;;14.30;100.00
64192;BME280;50497;50.720;-2.084;2022-07-29T00:55:15;101738.06;;;14.27;100.00
64192;BME280;50497;50.720;-2.084;2022-07-29T00:57:45;101734.41;;;14.28;100.00
64192;BME280;50497;50.720;-2.084;2022-07-29T01:00:18;101728.22;;;14.26;100.00
64192;BME280;50497;50.720;-2.084;2022-07-29T01:02:48;101722.47;;;14.14;100.00
64192;BME280;50497;50.720;-2.084;2022-07-29T01:05:14;101730.84;;;14.08;100.00
64192;BME280;50497;50.720;-2.084;2022-07-29T01:07:45;101734.41;;;14.09;100.00
64192;BME280;50497;50.720;-2.084;2022-07-29T01:10:13;101727.13;;;14.11;100.00
64192;BME280;50497;50.720;-2.084;2022-07-29T01:12:40;101722.25;;;14.00;100.00
64192;BME280;50497;50.720;-2.084;2022-07-29T01:15:08;101724.81;;;14.03;100.00
64192;BME280;50497;50.720;-2.084;2022-07-29T01:28:52;101726.97;;;13.95;100.00
64192;BME280;50497;50.720;-2.084;2022-07-29T01:31:29;101723.31;;;13.96;100.00
64192;BME280;50497;50.720;-2.084;2022-07-29T01:34:04;101732.22;;;13.98;100.00
64192;BME280;50497;50.720;-2.084;2022-07-29T01:36:47;101738.59;;;13.95;100.00
64192;BME280;50497;50.720;-2.084;2022-07-29T01:39:25;101737.59;;;13.98;100.00
64192;BME280;50497;50.720;-2.084;2022-07-29T01:44:53;101724.22;;;13.96;100.00
64192;BME280;50497;50.720;-2.084;2022-07-29T01:47:23;101737.66;;;13.96;100.00
64192;BME280;50497;50.720;-2.084;2022-07-29T01:49:52;101749.16;;;14.00;100.00
64192;BME280;50497;50.720;-2.084;2022-07-29T01:52:25;101758.38;;;13.94;100.00
64192;BME280;50497;50.720;-2.084;2022-07-29T01:54:55;101746.06;;;13.89;100.00
64192;BME280;50497;50.720;-2.084;2022-07-29T01:57:31;101756.84;;;13.89;100.00
64192;BME280;50497;50.720;-2.084;2022-07-29T01:59:59;101746.06;;;13.89;100.00
64192;BME280;50497;50.720;-2.084;2022-07-29T02:02:26;101735.00;;;13.76;100.00
64192;BME280;50497;50.720;-2.084;2022-07-29T02:04:54;101740.91;;;13.84;100.00
64192;BME280;50497;50.720;-2.084;2022-07-29T02:07:23;101744.44;;;13.84;100.00
64192;BME280;50497;50.720;-2.084;2022-07-29T02:10:00;101740.56;;;13.71;100.00
64192;BME280;50497;50.720;-2.084;2022-07-29T02:12:31;101751.81;;;13.60;100.00
64192;BME280;50497;50.720;-2.084;2022-07-29T02:14:59;101752.75;;;13.59;100.00
64192;BME280;50497;50.720;-2.084;2022-07-29T02:17:31;101750.78;;;13.63;100.00
64192;BME280;50497;50.720;-2.084;2022-07-29T02:20:00;101750.00;;;13.61;100.00
64192;BME280;50497;50.720;-2.084;2022-07-29T02:22:29;101753.78;;;13.57;100.00
64192;BME280;50497;50.720;-2.084;2022-07-29T02:24:57;101753.28;;;13.47;100.00
64192;BME280;50497;50.720;-2.084;2022-07-29T02:27:24;101757.31;;;13.37;100.00
64192;BME280;50497;50.720;-2.084;2022-07-29T02:29:53;101758.25;;;13.36;100.00
64192;BME280;50497;50.720;-2.084;2022-07-29T02:32:21;101759.56;;;13.25;100.00
64192;BME280;50497;50.720;-2.084;2022-07-29T02:34:48;101757.97;;;13.20;100.00
64192;BME280;50497;50.720;-2.084;2022-07-29T02:37:16;101754.91;;;13.29;100.00
64192;BME280;50497;50.720;-2.084;2022-07-29T02:39:43;101756.88;;;13.25;100.00
64192;BME280;50497;50.720;-2.084;2022-07-29T02:42:13;101762.19;;;13.27;100.00
64192;BME280;50497;50.720;-2.084;2022-07-29T02:44:40;101755.94;;;13.26;100.00
64192;BME280;50497;50.720;-2.084;2022-07-29T02:47:43;101763.56;;;13.15;100.00
64192;BME280;50497;50.720;-2.084;2022-07-29T02:50:22;101765.53;;;13.11;100.00
64192;BME280;50497;50.720;-2.084;2022-07-29T02:52:57;101767.56;;;13.05;100.00
64192;BME280;50497;50.720;-2.084;2022-07-29T02:55:43;101770.50;;;13.21;100.00
64192;BME280;50497;50.720;-2.084;2022-07-29T02:58:24;101759.81;;;13.19;100.00
64192;BME280;50497;50.720;-2.084;2022-07-29T03:00:56;101760.66;;;13.20;100.00
64192;BME280;50497;50.720;-2.084;2022-07-29T03:03:25;101751.81;;;13.18;100.00
64192;BME280;50497;50.720;-2.084;2022-07-29T03:05:57;101758.25;;;13.13;100.00
64192;BME280;50497;50.720;-2.084;2022-07-29T03:08:26;101753.69;;;13.16;100.00
64192;BME280;50497;50.720;-2.084;2022-07-29T03:10:52;101748.44;;;13.12;100.00
64192;BME280;50497;50.720;-2.084;2022-07-29T03:13:18;101748.56;;;13.09;100.00
64192;BME280;50497;50.720;-2.084;2022-07-29T03:15:45;101741.09;;;12.96;100.00
64192;BME280;50497;50.720;-2.084;2022-07-29T03:18:12;101744.41;;;13.02;100.00
64192;BME280;50497;50.720;-2.084;2022-07-29T03:20:38;101749.78;;;13.02;100.00
64192;BME280;50497;50.720;-2.084;2022-07-29T03:23:04;101746.16;;;13.03;100.00
64192;BME280;50497;50.720;-2.084;2022-07-29T03:25:30;101735.31;;;13.05;100.00
64192;BME280;50497;50.720;-2.084;2022-07-29T03:27:56;101738.97;;;13.04;100.00
64192;BME280;50497;50.720;-2.084;2022-07-29T03:30:22;101735.09;;;12.89;100.00
64192;BME280;50497;50.720;-2.084;2022-07-29T03:32:49;101738.84;;;12.85;100.00
64192;BME280;50497;50.720;-2.084;2022-07-29T03:35:15;101741.53;;;12.85;100.00
64192;BME280;50497;50.720;-2.084;2022-07-29T03:37:45;101732.78;;;12.80;100.00
64192;BME280;50497;50.720;-2.084;2022-07-29T03:40:19;101738.28;;;12.76;100.00
64192;BME280;50497;50.720;-2.084;2022-07-29T03:42:51;101739.22;;;12.75;100.00
64192;BME280;50497;50.720;-2.084;2022-07-29T03:45:19;101750.22;;;12.69;100.00
64192;BME280;50497;50.720;-2.084;2022-07-29T03:47:51;101740.59;;;12.64;100.00
64192;BME280;50497;50.720;-2.084;2022-07-29T03:50:19;101741.75;;;12.56;100.00
64192;BME280;50497;50.720;-2.084;2022-07-29T03:52:47;101756.31;;;12.51;100.00
64192;BME280;50497;50.720;-2.084;2022-07-29T03:55:15;101753.81;;;12.46;100.00
64192;BME280;50497;50.720;-2.084;2022-07-29T03:57:42;101763.44;;;12.52;100.00
64192;BME280;50497;50.720;-2.084;2022-07-29T04:00:10;101746.69;;;12.45;100.00
64192;BME280;50497;50.720;-2.084;2022-07-29T04:02:39;101754.81;;;12.44;100.00
64192;BME280;50497;50.720;-2.084;2022-07-29T04:05:05;101757.59;;;12.41;100.00
64192;BME280;50497;50.720;-2.084;2022-07-29T04:07:37;101741.28;;;12.23;100.00
64192;BME280;50497;50.720;-2.084;2022-07-29T04:10:02;101760.53;;;12.34;100.00
64192;BME280;50497;50.720;-2.084;2022-07-29T04:12:28;101753.66;;;12.27;100.00
64192;BME280;50497;50.720;-2.084;2022-07-29T04:14:53;101758.84;;;12.32;100.00
64192;BME280;50497;50.720;-2.084;2022-07-29T04:17:23;101755.75;;;12.19;100.00
64192;BME280;50497;50.720;-2.084;2022-07-29T04:19:49;101760.91;;;12.25;100.00
64192;BME280;50497;50.720;-2.084;2022-07-29T04:22:14;101762.63;;;12.26;100.00
64192;BME280;50497;50.720;-2.084;2022-07-29T04:24:40;101760.47;;;12.12;100.00
64192;BME280;50497;50.720;-2.084;2022-07-29T04:27:05;101764.84;;;12.15;100.00
64192;BME280;50497;50.720;-2.084;2022-07-29T04:29:31;101767.88;;;12.06;100.00
64192;BME280;50497;50.720;-2.084;2022-07-29T04:31:57;101760.47;;;12.12;100.00
64192;BME280;50497;50.720;-2.084;2022-07-29T04:34:22;101744.72;;;12.03;100.00
64192;BME280;50497;50.720;-2.084;2022-07-29T04:36:48;101746.31;;;12.09;100.00
64192;BME280;50497;50.720;-2.084;2022-07-29T04:39:17;101759.56;;;12.12;100.00
64192;BME280;50497;50.720;-2.084;2022-07-29T04:41:45;101766.22;;;12.01;100.00
64192;BME280;50497;50.720;-2.084;2022-07-29T04:44:14;101775.28;;;11.99;100.00
64192;BME280;50497;50.720;-2.084;2022-07-29T04:46:43;101769.00;;;11.98;100.00
64192;BME280;50497;50.720;-2.084;2022-07-29T04:49:18;101781.34;;;12.04;100.00
64192;BME280;50497;50.720;-2.084;2022-07-29T04:51:44;101768.09;;;11.99;100.00
64192;BME280;50497;50.720;-2.084;2022-07-29T04:54:09;101768.91;;;12.01;100.00
64192;BME280;50497;50.720;-2.084;2022-07-29T04:56:35;101769.91;;;11.99;100.00
64192;BME280;50497;50.720;-2.084;2022-07-29T04:59:04;101775.91;;;12.06;100.00
64192;BME280;50497;50.720;-2.084;2022-07-29T05:01:37;101762.16;;;12.15;100.00
64192;BME280;50497;50.720;-2.084;2022-07-29T05:04:02;101758.06;;;12.05;100.00
64192;BME280;50497;50.720;-2.084;2022-07-29T05:06:32;101786.34;;;12.13;100.00
64192;BME280;50497;50.720;-2.084;2022-07-29T05:08:57;101783.50;;;12.18;100.00
64192;BME280;50497;50.720;-2.084;2022-07-29T05:11:23;101787.13;;;12.17;100.00
64192;BME280;50497;50.720;-2.084;2022-07-29T05:13:48;101777.91;;;12.24;100.00
64192;BME280;50497;50.720;-2.084;2022-07-29T05:16:14;101780.88;;;12.16;100.00
64192;BME280;50497;50.720;-2.084;2022-07-29T05:18:39;101787.72;;;12.25;100.00
64192;BME280;50497;50.720;-2.084;2022-07-29T05:21:05;101785.84;;;12.27;100.00
64192;BME280;50497;50.720;-2.084;2022-07-29T05:23:30;101779.09;;;12.41;100.00
64192;BME280;50497;50.720;-2.084;2022-07-29T05:26:00;101788.47;;;12.52;100.00
64192;BME280;50497;50.720;-2.084;2022-07-29T05:28:28;101794.41;;;12.61;100.00
64192;BME280;50497;50.720;-2.084;2022-07-29T05:30:53;101794.25;;;12.65;100.00
64192;BME280;50497;50.720;-2.084;2022-07-29T05:33:19;101784.69;;;12.80;100.00
64192;BME280;50497;50.720;-2.084;2022-07-29T05:35:47;101797.13;;;12.83;100.00
64192;BME280;50497;50.720;-2.084;2022-07-29T05:38:17;101793.94;;;12.95;100.00
64192;BME280;50497;50.720;-2.084;2022-07-29T05:40:42;101800.44;;;13.11;100.00
64192;BME280;50497;50.720;-2.084;2022-07-29T05:43:08;101797.44;;;13.19;100.00
64192;BME280;50497;50.720;-2.084;2022-07-29T05:45:33;101795.59;;;13.20;100.00
64192;BME280;50497;50.720;-2.084;2022-07-29T05:48:02;101793.56;;;13.26;100.00
64192;BME280;50497;50.720;-2.084;2022-07-29T05:50:28;101806.03;;;13.49;100.00
64192;BME280;50497;50.720;-2.084;2022-07-29T05:52:53;101794.03;;;13.58;100.00
64192;BME280;50497;50.720;-2.084;2022-07-29T05:55:19;101803.66;;;13.64;100.00
64192;BME280;50497;50.720;-2.084;2022-07-29T05:57:47;101807.75;;;13.73;100.00
64192;BME280;50497;50.720;-2.084;2022-07-29T06:00:12;101783.06;;;13.83;100.00
64192;BME280;50497;50.720;-2.084;2022-07-29T06:02:43;101799.84;;;14.09;100.00
64192;BME280;50497;50.720;-2.084;2022-07-29T06:05:09;101808.19;;;14.23;100.00
64192;BME280;50497;50.720;-2.084;2022-07-29T06:07:34;101803.84;;;14.40;100.00
64192;BME280;50497;50.720;-2.084;2022-07-29T06:10:00;101804.75;;;14.59;100.00
64192;BME280;50497;50.720;-2.084;2022-07-29T06:12:30;101805.59;;;14.79;100.00
64192;BME280;50497;50.720;-2.084;2022-07-29T06:14:56;101796.16;;;14.89;100.00
64192;BME280;50497;50.720;-2.084;2022-07-29T06:17:22;101806.19;;;15.05;100.00
64192;BME280;50497;50.720;-2.084;2022-07-29T06:19:47;101802.84;;;15.00;100.00
64192;BME280;50497;50.720;-2.084;2022-07-29T06:22:15;101804.78;;;15.15;100.00
64192;BME280;50497;50.720;-2.084;2022-07-29T06:24:41;101792.72;;;15.22;100.00
64192;BME280;50497;50.720;-2.084;2022-07-29T06:27:11;101799.56;;;15.29;100.00
64192;BME280;50497;50.720;-2.084;2022-07-29T06:29:37;101811.88;;;15.52;100.00
64192;BME280;50497;50.720;-2.084;2022-07-29T06:32:07;101808.00;;;15.58;100.00
64192;BME280;50497;50.720;-2.084;2022-07-29T06:34:37;101811.31;;;15.63;100.00
64192;BME280;50497;50.720;-2.084;2022-07-29T06:37:09;101804.47;;;15.74;100.00
64192;BME280;50497;50.720;-2.084;2022-07-29T06:39:35;101813.97;;;15.82;100.00
64192;BME280;50497;50.720;-2.084;2022-07-29T06:42:05;101803.75;;;15.89;100.00
64192;BME280;50497;50.720;-2.084;2022-07-29T06:44:31;101820.72;;;15.91;100.00
64192;BME280;50497;50.720;-2.084;2022-07-29T06:47:00;101819.09;;;16.04;100.00
64192;BME280;50497;50.720;-2.084;2022-07-29T06:49:26;101828.50;;;15.97;100.00
64192;BME280;50497;50.720;-2.084;2022-07-29T06:51:53;101829.25;;;16.17;100.00
64192;BME280;50497;50.720;-2.084;2022-07-29T06:54:22;101823.19;;;16.29;100.00
64192;BME280;50497;50.720;-2.084;2022-07-29T06:56:51;101798.38;;;16.05;100.00
64192;BME280;50497;50.720;-2.084;2022-07-29T06:59:24;101823.19;;;16.29;100.00
64192;BME280;50497;50.720;-2.084;2022-07-29T07:01:50;101818.63;;;16.47;100.00
64192;BME280;50497;50.720;-2.084;2022-07-29T07:04:16;101818.19;;;16.55;100.00
64192;BME280;50497;50.720;-2.084;2022-07-29T07:06:42;101813.59;;;16.57;100.00
64192;BME280;50497;50.720;-2.084;2022-07-29T07:09:08;101816.44;;;16.54;100.00
64192;BME280;50497;50.720;-2.084;2022-07-29T07:11:33;101819.56;;;16.95;100.00
64192;BME280;50497;50.720;-2.084;2022-07-29T07:13:59;101813.34;;;17.09;100.00
64192;BME280;50497;50.720;-2.084;2022-07-29T07:16:25;101807.53;;;17.31;100.00
64192;BME280;50497;50.720;-2.084;2022-07-29T07:18:50;101818.38;;;17.31;100.00
64192;BME280;50497;50.720;-2.084;2022-07-29T07:21:16;101819.84;;;17.67;100.00
64192;BME280;50497;50.720;-2.084;2022-07-29T07:23:42;101830.53;;;18.44;100.00
64192;BME280;50497;50.720;-2.084;2022-07-29T07:26:07;101805.75;;;18.64;100.00
64192;BME280;50497;50.720;-2.084;2022-07-29T07:28:33;101813.88;;;18.64;100.00
64192;BME280;50497;50.720;-2.084;2022-07-29T07:31:02;101813.69;;;19.36;100.00
64192;BME280;50497;50.720;-2.084;2022-07-29T07:33:27;101810.59;;;19.83;100.00
64192;BME280;50497;50.720;-2.084;2022-07-29T07:35:52;101800.94;;;20.04;100.00
64192;BME280;50497;50.720;-2.084;2022-07-29T07:38:18;101803.06;;;20.63;100.00
64192;BME280;50497;50.720;-2.084;2022-07-29T07:40:44;101807.34;;;21.16;100.00
64192;BME280;50497;50.720;-2.084;2022-07-29T07:43:11;101810.00;;;22.00;100.00
64192;BME280;50497;50.720;-2.084;2022-07-29T07:45:36;101810.59;;;22.50;100.00
64192;BME280;50497;50.720;-2.084;2022-07-29T07:48:03;101804.84;;;23.31;100.00
64192;BME280;50497;50.720;-2.084;2022-07-29T07:50:29;101809.13;;;23.56;100.00
64192;BME280;50497;50.720;-2.084;2022-07-29T07:52:55;101799.56;;;23.83;100.00
64192;BME280;50497;50.720;-2.084;2022-07-29T07:55:25;101796.59;;;24.16;100.00
64192;BME280;50497;50.720;-2.084;2022-07-29T07:57:51;101783.38;;;23.91;100.00
64192;BME280;50497;50.720;-2.084;2022-07-29T08:00:17;101801.59;;;23.04;100.00
64192;BME280;50497;50.720;-2.084;2022-07-29T08:02:42;101806.09;;;22.83;100.00
64192;BME280;50497;50.720;-2.084;2022-07-29T08:05:09;101803.00;;;22.20;100.00
64192;BME280;50497;50.720;-2.084;2022-07-29T08:07:36;101808.34;;;21.74;100.00
64192;BME280;50497;50.720;-2.084;2022-07-29T08:10:02;101804.97;;;21.59;100.00
64192;BME280;50497;50.720;-2.084;2022-07-29T08:12:28;101802.72;;;21.53;100.00
64192;BME280;50497;50.720;-2.084;2022-07-29T08:14:53;101805.84;;;21.36;100.00
64192;BME280;50497;50.720;-2.084;2022-07-29T08:17:19;101813.44;;;21.44;100.00
64192;BME280;50497;50.720;-2.084;2022-07-29T08:19:44;101818.00;;;21.19;100.00
64192;BME280;50497;50.720;-2.084;2022-07-29T08:22:10;101810.81;;;21.18;100.00
64192;BME280;50497;50.720;-2.084;2022-07-29T08:24:36;101809.78;;;21.08;100.00
64192;BME280;50497;50.720;-2.084;2022-07-29T08:27:33;101807.66;;;21.48;100.00
64192;BME280;50497;50.720;-2.084;2022-07-29T08:29:59;101808.13;;;21.77;100.00
64192;BME280;50497;50.720;-2.084;2022-07-29T08:32:24;101814.22;;;21.92;100.00
64192;BME280;50497;50.720;-2.084;2022-07-29T08:34:51;101812.50;;;22.03;100.00
64192;BME280;50497;50.720;-2.084;2022-07-29T08:37:17;101806.50;;;22.44;100.00
64192;BME280;50497;50.720;-2.084;2022-07-29T08:39:43;101800.38;;;23.41;100.00
64192;BME280;50497;50.720;-2.084;2022-07-29T08:42:08;101795.13;;;24.43;100.00
64192;BME280;50497;50.720;-2.084;2022-07-29T08:44:35;101800.66;;;24.94;97.84
64192;BME280;50497;50.720;-2.084;2022-07-29T08:47:02;101797.69;;;25.45;97.76
64192;BME280;50497;50.720;-2.084;2022-07-29T08:49:27;101796.94;;;25.73;89.79
64192;BME280;50497;50.720;-2.084;2022-07-29T08:51:53;101805.44;;;25.89;81.80
64192;BME280;50497;50.720;-2.084;2022-07-29T08:54:19;101800.09;;;25.97;79.71
64192;BME280;50497;50.720;-2.084;2022-07-29T08:56:50;101808.59;;;25.85;82.13
64192;BME280;50497;50.720;-2.084;2022-07-29T08:59:19;101800.72;;;26.29;80.17
64192;BME280;50497;50.720;-2.084;2022-07-29T09:01:46;101800.47;;;26.22;80.08
64192;BME280;50497;50.720;-2.084;2022-07-29T09:04:14;101808.47;;;25.96;80.42
64192;BME280;50497;50.720;-2.084;2022-07-29T09:06:44;101804.63;;;26.26;76.98
64192;BME280;50497;50.720;-2.084;2022-07-29T09:09:11;101805.59;;;26.45;75.22
64192;BME280;50497;50.720;-2.084;2022-07-29T09:11:39;101803.31;;;26.30;74.71
64192;BME280;50497;50.720;-2.084;2022-07-29T09:14:05;101805.06;;;27.15;72.03
64192;BME280;50497;50.720;-2.084;2022-07-29T09:16:54;101802.41;;;27.23;70.16
64192;BME280;50497;50.720;-2.084;2022-07-29T09:19:33;101799.66;;;27.41;69.69
64192;BME280;50497;50.720;-2.084;2022-07-29T09:22:02;101804.34;;;26.67;71.00
64192;BME280;50497;50.720;-2.084;2022-07-29T09:27:00;101804.69;;;26.82;69.23
64192;BME280;50497;50.720;-2.084;2022-07-29T09:29:26;101801.44;;;26.31;73.41
64192;BME280;50497;50.720;-2.084;2022-07-29T09:31:53;101800.28;;;26.61;75.53
64192;BME280;50497;50.720;-2.084;2022-07-29T09:34:28;101801.03;;;27.09;71.11
64192;BME280;50497;50.720;-2.084;2022-07-29T09:36:55;101798.50;;;26.98;72.39
64192;BME280;50497;50.720;-2.084;2022-07-29T09:39:29;101801.44;;;26.31;74.60
64192;BME280;50497;50.720;-2.084;2022-07-29T09:41:57;101791.88;;;26.45;70.46
64192;BME280;50497;50.720;-2.084;2022-07-29T09:44:24;101787.06;;;26.09;75.05
64192;BME280;50497;50.720;-2.084;2022-07-29T09:46:58;101786.94;;;27.22;69.56
64192;BME280;50497;50.720;-2.084;2022-07-29T09:49:24;101786.25;;;27.82;67.13
64192;BME280;50497;50.720;-2.084;2022-07-29T09:52:19;101777.66;;;28.03;66.98
64192;BME280;50497;50.720;-2.084;2022-07-29T09:54:46;101786.88;;;28.20;66.75
64192;BME280;50497;50.720;-2.084;2022-07-29T09:57:24;101780.53;;;26.85;65.41
64192;BME280;50497;50.720;-2.084;2022-07-29T09:59:58;101785.84;;;27.51;63.62
64192;BME280;50497;50.720;-2.084;2022-07-29T10:02:34;101785.91;;;27.59;66.47
64192;BME280;50497;50.720;-2.084;2022-07-29T10:05:02;101789.91;;;27.91;61.44
64192;BME280;50497;50.720;-2.084;2022-07-29T10:07:55;101785.09;;;27.84;65.22
64192;BME280;50497;50.720;-2.084;2022-07-29T10:10:32;101791.97;;;27.89;63.41
64192;BME280;50497;50.720;-2.084;2022-07-29T10:13:13;101783.28;;;27.93;59.37
64192;BME280;50497;50.720;-2.084;2022-07-29T10:15:41;101773.22;;;28.79;62.72
64192;BME280;50497;50.720;-2.084;2022-07-29T10:18:11;101787.88;;;28.88;57.50
64192;BME280;50497;50.720;-2.084;2022-07-29T10:20:38;101786.94;;;28.63;53.61
64192;BME280;50497;50.720;-2.084;2022-07-29T10:23:04;101786.34;;;28.16;52.28
64192;BME280;50497;50.720;-2.084;2022-07-29T10:25:30;101785.53;;;28.59;54.21
64192;BME280;50497;50.720;-2.084;2022-07-29T10:27:57;101799.16;;;28.68;56.70
64192;BME280;50497;50.720;-2.084;2022-07-29T10:30:24;101785.03;;;28.63;58.73
64192;BME280;50497;50.720;-2.084;2022-07-29T10:41:37;101792.72;;;28.94;61.43
64192;BME280;50497;50.720;-2.084;2022-07-29T10:44:21;101805.25;;;28.46;64.73
64192;BME280;50497;50.720;-2.084;2022-07-29T10:46:48;101796.94;;;29.47;60.34
64192;BME280;50497;50.720;-2.084;2022-07-29T10:52:08;101796.88;;;27.95;59.97
64192;BME280;50497;50.720;-2.084;2022-07-29T10:57:22;101805.94;;;28.82;62.25
64192;BME280;50497;50.720;-2.084;2022-07-29T11:05:12;101803.53;;;28.79;56.14
64192;BME280;50497;50.720;-2.084;2022-07-29T11:10:44;101803.31;;;29.48;53.02
64192;BME280;50497;50.720;-2.084;2022-07-29T11:13:09;101811.78;;;29.88;51.32
64192;BME280;50497;50.720;-2.084;2022-07-29T11:18:26;101801.63;;;29.55;47.04
64192;BME280;50497;50.720;-2.084;2022-07-29T11:20:51;101796.16;;;28.53;45.65
64192;BME280;50497;50.720;-2.084;2022-07-29T11:23:30;101798.84;;;29.80;44.02
64192;BME280;50497;50.720;-2.084;2022-07-29T11:31:16;101779.41;;;28.73;45.55
64192;BME280;50497;50.720;-2.084;2022-07-29T11:33:44;101791.91;;;29.18;46.03
64192;BME280;50497;50.720;-2.084;2022-07-29T11:36:12;101789.94;;;28.51;47.67
64192;BME280;50497;50.720;-2.084;2022-07-29T11:38:38;101802.78;;;28.61;46.84
64192;BME280;50497;50.720;-2.084;2022-07-29T11:41:23;101803.28;;;29.23;46.93
64192;BME280;50497;50.720;-2.084;2022-07-29T11:43:54;101803.31;;;29.40;44.83
64192;BME280;50497;50.720;-2.084;2022-07-29T11:46:49;101800.69;;;29.05;43.53
64192;BME280;50497;50.720;-2.084;2022-07-29T11:49:26;101799.47;;;29.16;44.09
64192;BME280;50497;50.720;-2.084;2022-07-29T11:51:54;101793.53;;;28.44;45.26
64192;BME280;50497;50.720;-2.084;2022-07-29T11:54:31;101784.03;;;29.48;45.88
64192;BME280;50497;50.720;-2.084;2022-07-29T11:56:58;101788.47;;;30.07;40.67
64192;BME280;50497;50.720;-2.084;2022-07-29T11:59:24;101771.97;;;29.65;43.12
64192;BME280;50497;50.720;-2.084;2022-07-29T12:01:54;101758.91;;;30.71;43.78
64192;BME280;50497;50.720;-2.084;2022-07-29T12:04:20;101763.59;;;31.02;40.60
64192;BME280;50497;50.720;-2.084;2022-07-29T12:06:50;101769.66;;;31.21;35.43
64192;BME280;50497;50.720;-2.084;2022-07-29T12:09:16;101762.63;;;30.87;36.28
64192;BME280;50497;50.720;-2.084;2022-07-29T12:11:43;101768.03;;;30.40;32.52
64192;BME280;50497;50.720;-2.084;2022-07-29T12:14:08;101760.91;;;30.86;34.59
64192;BME280;50497;50.720;-2.084;2022-07-29T12:16:36;101760.59;;;30.81;42.02
64192;BME280;50497;50.720;-2.084;2022-07-29T12:19:03;101762.03;;;30.37;44.24
64192;BME280;50497;50.720;-2.084;2022-07-29T12:21:54;101766.06;;;31.81;40.35
64192;BME280;50497;50.720;-2.084;2022-07-29T12:24:21;101754.28;;;31.03;41.81
64192;BME280;50497;50.720;-2.084;2022-07-29T12:26:54;101758.00;;;30.48;45.33
64192;BME280;50497;50.720;-2.084;2022-07-29T12:29:20;101760.22;;;29.96;47.39
64192;BME280;50497;50.720;-2.084;2022-07-29T12:31:45;101761.59;;;30.00;45.55
64192;BME280;50497;50.720;-2.084;2022-07-29T12:34:15;101758.00;;;31.10;41.11
64192;BME280;50497;50.720;-2.084;2022-07-29T12:36:42;101762.44;;;31.43;37.18
64192;BME280;50497;50.720;-2.084;2022-07-29T12:39:11;101768.53;;;31.61;38.02
64192;BME280;50497;50.720;-2.084;2022-07-29T12:41:38;101754.09;;;31.28;41.55
64192;BME280;50497;50.720;-2.084;2022-07-29T12:44:04;101762.16;;;31.91;39.70
64192;BME280;50497;50.720;-2.084;2022-07-29T12:46:29;101778.66;;;30.91;41.41
64192;BME280;50497;50.720;-2.084;2022-07-29T12:48:55;101779.66;;;30.67;41.09
64192;BME280;50497;50.720;-2.084;2022-07-29T12:51:38;101759.50;;;31.21;44.08
64192;BME280;50497;50.720;-2.084;2022-07-29T12:54:05;101775.38;;;31.19;41.05
64192;BME280;50497;50.720;-2.084;2022-07-29T12:56:31;101764.34;;;30.88;41.55
64192;BME280;50497;50.720;-2.084;2022-07-29T12:58:56;101772.19;;;31.07;42.16
64192;BME280;50497;50.720;-2.084;2022-07-29T13:01:23;101775.88;;;30.12;39.54
64192;BME280;50497;50.720;-2.084;2022-07-29T13:03:53;101768.97;;;30.08;38.97
64192;BME280;50497;50.720;-2.084;2022-07-29T13:09:06;101771.84;;;30.31;45.61
64192;BME280;50497;50.720;-2.084;2022-07-29T13:11:37;101769.91;;;31.34;45.38
64192;BME280;50497;50.720;-2.084;2022-07-29T13:14:08;101765.31;;;31.03;43.47
64192;BME280;50497;50.720;-2.084;2022-07-29T13:16:35;101768.81;;;31.66;45.21
64192;BME280;50497;50.720;-2.084;2022-07-29T13:19:11;101771.16;;;31.55;44.69
64192;BME280;50497;50.720;-2.084;2022-07-29T13:21:38;101767.47;;;31.16;45.29
64192;BME280;50497;50.720;-2.084;2022-07-29T13:24:05;101769.91;;;31.11;44.74
64192;BME280;50497;50.720;-2.084;2022-07-29T13:26:39;101771.91;;;30.63;46.20
64192;BME280;50497;50.720;-2.084;2022-07-29T13:29:05;101771.91;;;30.94;46.34
64192;BME280;50497;50.720;-2.084;2022-07-29T13:31:31;101782.69;;;30.81;46.94